Time;durP1;ratioP1;P1;durP2;ratioP2;P2;SDS_P1;SDS_P2;PMS_P1;PMS_P2;Temp;Humidity;BMP_temperature;BMP_pressure;BME280_temperature;BME280_humidity;BME280_pressure;Samples;Min_cycle;Max_cycle;Signal;HPM_P1;HPM_P2
2023/11/13 00:00:45;;;;;;;6.07;3.67;;;3.90;99.90;;;3.22;100.00;100064.16;5011236;28;20049;-75
2023/11/13 00:03:11;;;;;;;10.23;3.90;;;3.90;99.90;;;3.14;100.00;100056.97;5020077;28;20033;-75
2023/11/13 00:05:37;;;;;;;5.60;3.33;;;3.80;99.90;;;3.08;100.00;100055.03;5015593;28;20037;-75
2023/11/13 00:08:05;;;;;;;8.15;4.07;;;3.80;99.90;;;3.04;100.00;100055.56;5032267;28;20485;-75
2023/11/13 00:10:32;;;;;;;7.07;3.95;;;3.70;99.90;;;2.99;100.00;100061.47;5035945;28;20477;-75
2023/11/13 00:12:59;;;;;;;7.30;3.72;;;3.70;99.90;;;2.90;100.00;100033.75;5027620;28;20073;-76
2023/11/13 00:15:25;;;;;;;5.18;3.35;;;3.60;99.90;;;2.85;100.00;100028.09;5024572;28;20043;-75
2023/11/13 00:17:52;;;;;;;9.05;3.60;;;3.60;99.90;;;2.79;100.00;100012.66;5019187;28;20034;-75
2023/11/13 00:20:19;;;;;;;6.53;4.20;;;3.60;99.90;;;2.73;100.00;100001.59;5024378;28;20041;-76
2023/11/13 00:22:46;;;;;;;8.48;4.10;;;3.50;99.90;;;2.67;100.00;99994.22;5011794;28;20077;-75
2023/11/13 00:25:12;;;;;;;7.30;4.20;;;3.50;99.90;;;2.60;100.00;99990.56;5034897;28;20034;-75
2023/11/13 00:27:38;;;;;;;7.75;4.05;;;3.40;99.90;;;2.56;100.00;99992.81;5019705;28;20030;-75
2023/11/13 00:30:06;;;;;;;7.00;4.18;;;3.30;99.90;;;2.41;100.00;99997.28;5034069;28;20084;-77
2023/11/13 00:32:32;;;;;;;10.15;4.55;;;3.10;99.90;;;2.23;100.00;99982.25;5026684;28;20075;-76
2023/11/13 00:34:58;;;;;;;7.85;4.38;;;3.00;99.90;;;2.15;100.00;100001.16;5040634;28;20092;-76
2023/11/13 00:37:24;;;;;;;11.23;4.22;;;2.90;99.90;;;2.13;100.00;100001.34;5018467;28;20018;-76
2023/11/13 00:39:50;;;;;;;6.78;3.95;;;2.90;99.90;;;2.04;100.00;99975.47;5014858;28;20133;-76
2023/11/13 00:42:16;;;;;;;8.57;4.93;;;2.80;99.90;;;2.01;100.00;99986.59;5016472;28;20038;-76
2023/11/13 00:44:43;;;;;;;8.18;4.85;;;2.70;99.90;;;1.93;100.00;99970.50;5020788;28;20038;-76
2023/11/13 00:47:09;;;;;;;9.57;5.05;;;2.60;99.90;;;1.80;100.00;99954.94;5023661;28;20482;-76
2023/11/13 00:49:34;;;;;;;7.93;5.20;;;2.50;99.90;;;1.79;100.00;99955.97;5029050;28;20038;-76
2023/11/13 00:52:00;;;;;;;10.93;6.20;;;2.50;99.90;;;1.78;100.00;99935.44;5029281;28;20074;-76
2023/11/13 00:54:26;;;;;;;13.43;5.93;;;2.50;99.90;;;1.85;100.00;99928.34;5018501;28;20044;-76
2023/11/13 00:56:52;;;;;;;11.65;6.25;;;2.60;99.90;;;1.89;100.00;99918.06;5020757;28;20099;-76
2023/11/13 00:59:17;;;;;;;8.60;5.95;;;2.60;99.90;;;1.85;100.00;99904.97;5037240;28;20037;-76
2023/11/13 01:01:44;;;;;;;11.38;6.50;;;2.50;99.90;;;1.74;100.00;99894.63;5018979;28;20034;-76
2023/11/13 01:04:10;;;;;;;11.02;7.00;;;2.50;99.90;;;1.72;100.00;99902.03;5015890;28;20087;-76
2023/11/13 01:06:36;;;;;;;14.77;7.22;;;2.40;99.90;;;1.73;100.00;99898.31;5019421;28;20117;-76
2023/11/13 01:09:03;;;;;;;11.02;6.85;;;2.40;99.90;;;1.76;100.00;99900.66;5016926;28;20038;-76
2023/11/13 01:11:29;;;;;;;11.73;6.80;;;2.40;99.90;;;1.75;100.00;99882.84;5018952;28;20514;-76
2023/11/13 01:13:54;;;;;;;11.15;6.95;;;2.50;99.90;;;1.90;100.00;99903.59;5039978;28;20121;-76
2023/11/13 01:16:20;;;;;;;9.70;6.22;;;2.50;99.90;;;1.88;100.00;99894.88;5013953;28;20393;-76
2023/11/13 01:18:53;;;;;;;12.77;6.47;;;2.50;99.90;;;1.83;100.00;99890.84;5016685;28;20449;-76
2023/11/13 01:21:21;;;;;;;10.48;6.13;;;2.50;99.90;;;1.73;100.00;99879.50;5032808;28;20038;-76
2023/11/13 01:23:47;;;;;;;13.75;6.50;;;2.40;99.90;;;1.66;100.00;99878.53;5040173;28;20093;-76
2023/11/13 01:26:13;;;;;;;12.68;6.00;;;2.30;99.90;;;1.56;100.00;99876.88;5036497;28;20072;-76
2023/11/13 01:28:40;;;;;;;9.05;5.95;;;2.30;99.90;;;1.49;100.00;99864.34;5013515;28;20046;-76
2023/11/13 01:31:07;;;;;;;10.48;6.13;;;2.20;99.90;;;1.45;100.00;99866.53;5018929;28;20128;-76
2023/11/13 01:33:32;;;;;;;11.15;5.10;;;2.20;99.90;;;1.45;100.00;99863.84;5013536;28;20098;-76
2023/11/13 01:35:59;;;;;;;11.23;6.10;;;2.20;99.90;;;1.42;100.00;99862.34;5012717;28;20156;-76
2023/11/13 01:38:25;;;;;;;11.05;5.50;;;2.20;99.90;;;1.48;100.00;99854.63;5016711;28;20095;-76
2023/11/13 01:40:51;;;;;;;11.23;5.72;;;2.20;99.90;;;1.49;100.00;99840.97;5019714;28;20034;-76
2023/11/13 01:43:21;;;;;;;13.23;6.15;;;2.20;99.90;;;1.47;100.00;99828.75;5020680;28;20122;-77
2023/11/13 01:45:53;;;;;;;11.73;6.15;;;2.30;99.90;;;1.55;100.00;99834.88;5033477;28;20029;-76
2023/11/13 01:48:20;;;;;;;12.13;6.32;;;2.30;99.90;;;1.52;100.00;99824.50;5016994;28;20038;-76
2023/11/13 01:50:46;;;;;;;16.73;7.10;;;2.30;99.90;;;1.56;100.00;99820.44;5013380;28;20044;-75
2023/11/13 01:53:16;;;;;;;13.38;6.65;;;2.30;99.90;;;1.58;100.00;99809.50;5013037;28;20046;-76
2023/11/13 01:55:44;;;;;;;12.50;6.47;;;2.30;99.90;;;1.54;100.00;99800.94;5018534;28;20037;-75
2023/11/13 01:58:10;;;;;;;;;;;2.30;99.90;;;1.50;100.00;99798.81;5038250;28;20112;-76
2023/11/13 02:00:38;;;;;;;10.52;6.30;;;2.20;99.90;;;1.51;100.00;99808.56;5034238;28;20015;-76
2023/11/13 02:03:05;;;;;;;9.70;6.00;;;2.20;99.90;;;1.50;100.00;99817.63;5031982;28;20042;-76
2023/11/13 02:05:32;;;;;;;9.82;5.88;;;2.30;99.90;;;1.48;100.00;99817.81;5034508;28;20053;-75
2023/11/13 02:07:57;;;;;;;10.93;6.20;;;2.20;99.90;;;1.41;100.00;99823.03;5012883;28;20032;-76
2023/11/13 02:10:26;;;;;;;12.07;5.90;;;2.10;99.90;;;1.23;100.00;99826.00;5014696;28;20038;-76
2023/11/13 02:12:53;;;;;;;10.25;4.90;;;1.90;99.90;;;1.03;100.00;99820.22;5027740;28;20038;-76
2023/11/13 02:15:19;;;;;;;8.27;5.15;;;1.70;99.90;;;0.82;100.00;99831.56;5019015;28;20047;-76
2023/11/13 02:18:03;;;;;;;9.60;5.10;;;1.50;99.90;;;0.71;100.00;99848.88;5029566;28;20145;-76
2023/11/13 02:20:31;;;;;;;9.70;4.90;;;1.30;99.90;;;0.73;100.00;99830.75;5017540;28;20038;-76
2023/11/13 02:22:58;;;;;;;8.50;5.40;;;1.40;99.90;;;0.86;100.00;99831.03;5011189;28;20034;-76
2023/11/13 02:25:26;;;;;;;11.57;5.88;;;1.50;99.90;;;0.90;100.00;99833.34;5037526;28;20125;-76
2023/11/13 02:28:00;;;;;;;12.30;5.28;;;1.60;99.90;;;0.90;100.00;99831.53;5016824;28;20042;-75
2023/11/13 02:30:26;;;;;;;11.38;5.68;;;1.60;99.90;;;0.84;100.00;99821.47;5014364;28;20129;-76
2023/11/13 02:32:52;;;;;;;9.35;5.82;;;1.60;99.90;;;0.87;100.00;99807.69;5033688;28;20468;-76
2023/11/13 02:35:18;;;;;;;11.25;5.18;;;1.60;99.90;;;0.80;100.00;99806.72;5012202;28;20052;-76
2023/11/13 02:37:44;;;;;;;10.23;6.00;;;1.50;99.90;;;0.76;100.00;99797.31;5032961;28;20037;-76
2023/11/13 02:40:11;;;;;;;11.60;5.47;;;1.50;99.90;;;0.82;100.00;99781.34;5016796;28;20034;-76
2023/11/13 02:42:41;;;;;;;9.38;5.10;;;1.60;99.90;;;0.95;100.00;99775.44;5020385;28;20060;-76
2023/11/13 02:45:09;;;;;;;12.48;6.07;;;1.70;99.90;;;1.06;100.00;99760.75;5016875;28;20042;-76
2023/11/13 02:47:34;;;;;;;;;;;1.80;99.90;;;1.13;100.00;99756.34;5014913;28;20026;-76
2023/11/13 02:50:02;;;;;;;8.52;4.95;;;1.90;99.90;;;1.29;100.00;99751.91;5022810;28;19961;-76
2023/11/13 02:52:28;;;;;;;13.68;5.75;;;2.00;99.90;;;1.33;100.00;99744.34;5021821;28;20037;-76
2023/11/13 02:54:54;;;;;;;10.85;5.95;;;2.10;99.90;;;1.41;100.00;99720.91;5030885;28;20096;-76
2023/11/13 02:57:20;;;;;;;13.35;6.60;;;2.20;99.90;;;1.41;100.00;99720.91;5030859;28;20120;-76
2023/11/13 02:59:46;;;;;;;11.90;6.10;;;2.20;99.90;;;1.42;100.00;99711.00;5024980;28;20405;-76
2023/11/13 03:02:12;;;;;;;11.75;6.18;;;2.10;99.90;;;1.35;100.00;99710.88;5013901;28;20132;-76
2023/11/13 03:04:38;;;;;;;12.48;6.50;;;2.10;99.90;;;1.32;100.00;99695.09;5033546;28;20120;-76
2023/11/13 03:07:04;;;;;;;13.73;6.43;;;2.20;99.90;;;1.41;100.00;99702.06;5030814;28;20133;-76
2023/11/13 03:09:30;;;;;;;14.27;7.03;;;2.10;99.90;;;1.42;100.00;99697.56;5037044;28;20054;-76
2023/11/13 03:11:57;;;;;;;14.13;7.80;;;2.20;99.90;;;1.40;100.00;99696.91;5017909;28;20136;-76
2023/11/13 03:14:23;;;;;;;14.38;7.90;;;2.20;99.90;;;1.49;100.00;99711.13;5017402;28;20119;-76
2023/11/13 03:16:48;;;;;;;15.63;7.50;;;2.20;99.90;;;1.52;100.00;99718.81;5026714;28;20541;-76
2023/11/13 03:19:16;;;;;;;15.18;7.65;;;2.30;99.90;;;1.57;100.00;99724.47;5011993;28;20030;-77
2023/11/13 03:21:41;;;;;;;15.38;7.95;;;2.30;99.90;;;1.60;100.00;99724.13;5011741;28;20116;-76
2023/11/13 03:24:07;;;;;;;14.90;7.47;;;2.40;99.90;;;1.63;100.00;99718.38;5026931;28;20037;-76
2023/11/13 03:26:33;;;;;;;16.17;7.18;;;2.40;99.90;;;1.75;100.00;99721.47;5011622;28;20042;-76
2023/11/13 03:28:59;;;;;;;13.50;7.32;;;2.40;99.90;;;1.67;100.00;99730.44;5014659;28;20041;-76
2023/11/13 03:31:26;;;;;;;12.65;6.70;;;2.50;99.90;;;1.64;100.00;99720.03;5017239;28;20480;-76
2023/11/13 03:33:53;;;;;;;15.55;7.32;;;2.50;99.90;;;1.71;100.00;99752.44;5015709;28;20453;-76
2023/11/13 03:36:19;;;;;;;16.15;7.15;;;2.40;99.90;;;1.65;100.00;99756.69;5018190;28;20555;-76
2023/11/13 03:38:45;;;;;;;14.88;7.13;;;2.40;99.90;;;1.70;100.00;99766.91;5015844;28;20046;-76
2023/11/13 03:41:11;;;;;;;14.88;6.97;;;2.40;99.90;;;1.64;100.00;99757.69;5010299;28;20117;-76
2023/11/13 03:43:37;;;;;;;12.35;6.68;;;2.40;99.90;;;1.75;100.00;99769.88;5019657;28;20473;-76
2023/11/13 03:46:03;;;;;;;12.63;7.38;;;2.50;99.90;;;1.74;100.00;99773.59;5018375;28;20034;-76
2023/11/13 03:48:30;;;;;;;13.85;7.03;;;2.50;99.90;;;1.79;100.00;99765.81;5017854;28;20036;-76
2023/11/13 03:50:55;;;;;;;14.95;7.20;;;2.50;99.90;;;1.94;100.00;99784.69;5031360;28;20029;-76
2023/11/13 03:53:22;;;;;;;15.10;6.95;;;2.60;99.90;;;1.93;100.00;99783.00;5015481;28;20030;-76
2023/11/13 03:55:48;;;;;;;12.32;6.22;;;2.70;99.90;;;1.96;100.00;99779.13;5016481;28;20208;-76
2023/11/13 03:58:13;;;;;;;12.75;6.50;;;2.70;99.90;;;1.96;100.00;99788.03;5028037;28;20022;-76
2023/11/13 04:00:39;;;;;;;13.98;6.32;;;2.70;99.90;;;1.95;100.00;99791.72;5030246;28;20053;-76
2023/11/13 04:03:05;;;;;;;14.10;6.90;;;2.70;99.90;;;1.87;100.00;99797.19;5033642;28;20037;-76
2023/11/13 04:05:31;;;;;;;13.35;6.47;;;2.70;99.90;;;1.91;100.00;99789.59;5024839;28;20107;-77
2023/11/13 04:07:57;;;;;;;13.63;6.65;;;2.70;99.90;;;1.86;100.00;99793.69;5024161;28;20041;-75
2023/11/13 04:10:24;;;;;;;12.88;6.07;;;2.60;99.90;;;1.90;100.00;99814.84;5024891;28;20038;-76
2023/11/13 04:12:50;;;;;;;13.90;6.13;;;2.60;99.90;;;1.84;100.00;99819.06;5014806;28;20034;-76
2023/11/13 04:15:16;;;;;;;11.82;5.95;;;2.60;99.90;;;1.85;100.00;99840.41;5036282;28;20042;-76
2023/11/13 04:17:42;;;;;;;11.32;5.78;;;2.50;99.90;;;1.76;100.00;99844.16;5011834;28;20064;-76
2023/11/13 04:20:12;;;;;;;12.85;6.38;;;2.40;99.90;;;1.69;100.00;99845.91;5015084;28;20490;-76
2023/11/13 04:22:41;;;;;;;13.10;5.78;;;2.40;99.90;;;1.77;100.00;99848.53;5030056;28;20097;-76
2023/11/13 04:25:07;;;;;;;9.60;5.20;;;2.50;99.90;;;1.80;100.00;99855.41;5018139;28;20045;-76
2023/11/13 04:27:33;;;;;;;11.10;5.20;;;2.50;99.90;;;1.76;100.00;99854.09;5020156;28;20124;-76
2023/11/13 04:29:59;;;;;;;12.80;5.65;;;2.40;99.90;;;1.73;100.00;99852.59;5017265;28;20393;-76
2023/11/13 04:32:25;;;;;;;12.93;6.05;;;2.40;99.90;;;1.63;100.00;99830.50;5025736;28;20041;-77
2023/11/13 04:34:51;;;;;;;13.82;6.88;;;2.40;99.90;;;1.57;100.00;99832.84;5039685;28;20038;-76
2023/11/13 04:37:18;;;;;;;12.52;6.13;;;2.30;99.90;;;1.57;100.00;99827.47;5021342;28;20763;-76
2023/11/13 04:39:45;;;;;;;9.80;5.82;;;2.30;99.90;;;1.50;100.00;99815.78;5026469;28;20099;-76
2023/11/13 04:42:10;;;;;;;10.30;5.38;;;2.20;99.90;;;1.47;100.00;99804.56;5015163;28;20061;-77
2023/11/13 04:44:36;;;;;;;11.07;5.32;;;2.20;99.90;;;1.50;100.00;99798.81;5022303;28;20084;-76
2023/11/13 04:47:02;;;;;;;16.15;6.38;;;2.20;99.90;;;1.45;100.00;99799.34;5014549;28;20066;-76
2023/11/13 04:49:29;;;;;;;9.38;5.32;;;2.20;99.90;;;1.38;100.00;99785.75;5018684;28;20053;-76
2023/11/13 04:51:55;;;;;;;15.13;6.22;;;2.10;99.90;;;1.36;100.00;99789.66;5020535;28;20108;-76
2023/11/13 04:54:21;;;;;;;10.23;5.53;;;2.10;99.90;;;1.29;100.00;99792.22;5014290;28;20038;-76
2023/11/13 04:56:47;;;;;;;9.98;5.50;;;2.00;99.90;;;1.23;100.00;99788.38;5029483;28;20473;-76
2023/11/13 04:59:12;;;;;;;12.48;6.18;;;1.90;99.90;;;1.15;100.00;99783.06;5014311;28;20065;-76
2023/11/13 05:01:39;;;;;;;11.57;6.18;;;1.80;99.90;;;1.08;100.00;99792.84;5014164;28;20033;-76
2023/11/13 05:04:09;;;;;;;12.93;6.30;;;1.80;99.90;;;1.03;100.00;99789.81;5013948;28;20033;-76
2023/11/13 05:06:35;;;;;;;12.40;6.60;;;1.70;99.90;;;0.97;100.00;99786.84;5013910;28;20068;-77
2023/11/13 05:09:05;;;;;;;12.32;6.60;;;1.70;99.90;;;1.06;100.00;99800.22;5038524;28;20444;-77
2023/11/13 05:11:31;;;;;;;15.00;6.43;;;1.80;99.90;;;1.09;100.00;99775.72;5033679;28;20056;-79
2023/11/13 05:13:57;;;;;;;13.10;5.75;;;1.90;99.90;;;1.16;100.00;99787.41;5018883;28;20053;-78
2023/11/13 05:16:26;;;;;;;13.35;6.25;;;1.90;99.90;;;1.29;100.00;99773.41;5029146;28;20072;-78
2023/11/13 05:18:52;;;;;;;14.93;6.85;;;2.00;99.90;;;1.43;100.00;99767.25;5014180;28;20044;-79
2023/11/13 05:21:19;;;;;;;15.65;6.93;;;2.10;99.90;;;1.60;100.00;99760.94;5014839;28;20034;-77
2023/11/13 05:23:48;;;;;;;15.80;6.83;;;2.30;99.90;;;1.63;100.00;99753.34;5019578;28;20088;-78
2023/11/13 05:26:16;;;;;;;14.82;7.00;;;2.40;99.90;;;1.74;100.00;99745.88;5018811;28;20061;-78
2023/11/13 05:28:42;;;;;;;15.85;7.22;;;2.50;99.90;;;1.77;100.00;99748.19;5020362;28;20037;-78
2023/11/13 05:31:09;;;;;;;13.27;6.97;;;2.50;99.90;;;1.79;100.00;99738.09;5020634;28;20125;-79
2023/11/13 05:33:34;;;;;;;14.45;7.03;;;2.50;99.90;;;1.88;100.00;99728.09;5027006;28;20138;-79
2023/11/13 05:36:00;;;;;;;13.18;7.03;;;2.60;99.90;;;1.94;100.00;99735.44;5031851;28;20038;-80
2023/11/13 05:38:26;;;;;;;15.18;7.18;;;2.70;99.90;;;1.97;100.00;99721.63;5013415;28;20482;-80
2023/11/13 05:40:52;;;;;;;17.85;7.43;;;2.70;99.90;;;1.97;100.00;99729.69;5031518;28;20041;-79
2023/11/13 05:43:18;;;;;;;15.70;7.35;;;2.70;99.90;;;1.97;100.00;99730.50;5034651;28;20037;-78
2023/11/13 05:45:44;;;;;;;17.67;7.05;;;2.70;99.90;;;2.08;100.00;99715.75;5018408;28;20498;-79
2023/11/13 05:48:10;;;;;;;16.48;6.75;;;2.80;99.90;;;2.11;100.00;99710.00;5033469;28;20099;-84
2023/11/13 05:50:36;;;;;;;15.70;7.38;;;2.90;99.90;;;2.14;100.00;99709.66;5029398;28;20041;-82
2023/11/13 05:53:01;;;;;;;14.55;7.60;;;2.90;99.90;;;2.22;100.00;99715.97;5013733;28;20042;-83
2023/11/13 05:55:29;;;;;;;14.80;6.63;;;3.00;99.90;;;2.22;100.00;99699.81;5021116;28;20033;-85
2023/11/13 05:57:55;;;;;;;12.02;6.50;;;3.00;99.90;;;2.31;100.00;99717.53;5026272;28;20056;-83
2023/11/13 06:00:21;;;;;;;16.48;7.00;;;3.00;99.90;;;2.33;100.00;99712.00;5035656;28;20050;-82
2023/11/13 06:02:48;;;;;;;13.68;7.30;;;3.10;99.90;;;2.32;100.00;99721.09;5022061;28;20072;-80
2023/11/13 06:05:16;;;;;;;19.23;7.10;;;3.10;99.90;;;2.28;100.00;99726.84;5013843;28;20053;-80
2023/11/13 06:07:43;;;;;;;15.55;6.80;;;3.10;99.90;;;2.30;100.00;99734.72;5013683;28;20046;-79
2023/11/13 06:10:10;;;;;;;12.20;6.43;;;3.00;99.90;;;2.28;100.00;99732.22;5020584;28;20064;-82
2023/11/13 06:12:39;;;;;;;14.10;7.25;;;3.00;99.90;;;2.26;100.00;99736.13;5012112;28;20038;-81
2023/11/13 06:15:16;;;;;;;14.35;7.05;;;3.00;99.90;;;2.25;100.00;99737.13;5034955;28;20029;-81
2023/11/13 06:17:44;;;;;;;15.65;7.57;;;3.00;99.90;;;2.32;100.00;99743.44;5019225;28;20444;-84
2023/11/13 06:20:19;;;;;;;17.15;7.85;;;3.00;99.90;;;2.27;100.00;99722.50;5027015;28;20045;-83
2023/11/13 06:22:47;;;;;;;13.95;7.93;;;3.10;99.90;;;2.40;100.00;99745.22;5017227;28;20529;-83
2023/11/13 06:25:14;;;;;;;18.45;7.80;;;3.10;99.90;;;2.43;100.00;99740.31;5014647;28;20048;-81
2023/11/13 06:27:40;;;;;;;16.45;7.50;;;3.20;99.90;;;2.52;100.00;99753.66;5023461;28;20393;-81
2023/11/13 06:30:12;;;;;;;13.48;7.80;;;3.20;99.90;;;2.53;100.00;99745.41;5023089;28;20037;-83
2023/11/13 06:32:38;;;;;;;17.88;8.30;;;3.30;99.90;;;2.54;100.00;99755.16;5014167;28;20077;-81
2023/11/13 06:35:05;;;;;;;23.05;9.23;;;3.30;99.90;;;2.48;100.00;99757.75;5020211;28;20041;-82
2023/11/13 06:37:31;;;;;;;19.00;9.05;;;3.30;99.90;;;2.52;100.00;99769.81;5018355;28;20524;-80
2023/11/13 06:39:58;;;;;;;16.02;8.00;;;3.30;99.90;;;2.52;100.00;99770.69;5017098;28;20034;-86
2023/11/13 06:42:24;;;;;;;18.80;8.65;;;3.30;99.90;;;2.61;100.00;99763.31;5018528;28;20033;-87
2023/11/13 06:44:49;;;;;;;16.70;8.40;;;3.40;99.90;;;2.59;100.00;99744.66;5014230;28;20108;-85
2023/11/13 06:47:16;;;;;;;18.45;8.70;;;3.40;99.90;;;2.68;100.00;99737.31;5013786;28;20050;-85
2023/11/13 06:49:41;;;;;;;14.73;8.40;;;3.50;99.90;;;2.71;100.00;99753.09;5028716;28;20064;-85
2023/11/13 06:52:08;;;;;;;18.80;8.35;;;3.50;99.90;;;2.81;100.00;99752.81;5014126;28;20034;-86
2023/11/13 06:54:35;;;;;;;15.82;8.80;;;3.60;99.90;;;2.80;100.00;99744.91;5014108;28;20429;-84
2023/11/13 06:57:02;;;;;;;19.35;8.57;;;3.60;99.90;;;2.87;100.00;99753.91;5022480;28;20065;-89
2023/11/13 06:59:28;;;;;;;18.05;8.20;;;3.60;99.90;;;2.82;100.00;99742.88;5025353;28;20120;-87
2023/11/13 07:01:55;;;;;;;16.10;8.30;;;3.70;99.90;;;2.97;100.00;99765.25;5022044;28;20474;-86
2023/11/13 07:04:21;;;;;;;18.05;7.25;;;3.70;99.90;;;2.99;100.00;99755.13;5025161;28;20033;-86
2023/11/13 07:06:48;;;;;;;15.07;7.45;;;3.80;99.90;;;3.04;100.00;99759.91;5016786;28;20044;-86
2023/11/13 07:09:14;;;;;;;21.17;9.40;;;3.70;99.90;;;3.01;100.00;99763.00;5013763;28;20512;-85
2023/11/13 07:11:47;;;;;;;20.33;8.88;;;3.80;99.90;;;2.97;100.00;99767.94;5024076;28;20087;-83
2023/11/13 07:14:15;;;;;;;20.27;9.38;;;3.70;99.90;;;3.00;100.00;99772.94;5022361;28;20041;-86
2023/11/13 07:16:41;;;;;;;16.40;8.10;;;3.70;99.90;;;3.01;100.00;99769.22;5027594;28;20034;-84
2023/11/13 07:19:08;;;;;;;17.90;8.70;;;3.60;99.90;;;3.00;100.00;99764.88;5023109;28;20030;-83
2023/11/13 07:21:38;;;;;;;14.95;9.10;;;3.60;99.90;;;3.00;100.00;99777.50;5016201;28;20033;-85
2023/11/13 07:24:05;;;;;;;19.70;8.45;;;3.50;99.90;;;2.89;100.00;99765.34;5020314;28;20509;-85
2023/11/13 07:26:31;;;;;;;15.55;8.70;;;3.50;99.90;;;2.81;100.00;99739.34;5012661;28;20084;-84
2023/11/13 07:28:58;;;;;;;19.95;10.05;;;3.50;99.90;;;2.84;100.00;99752.44;5016512;28;20108;-83
2023/11/13 07:31:24;;;;;;;22.38;10.23;;;3.50;99.90;;;2.88;100.00;99747.50;5017720;28;20042;-84
2023/11/13 07:33:50;;;;;;;19.80;11.13;;;3.60;99.90;;;2.92;100.00;99735.34;5016951;28;20092;-86
2023/11/13 07:36:16;;;;;;;20.60;10.52;;;3.60;99.90;;;3.04;100.00;99753.72;5034748;28;20383;-83
2023/11/13 07:38:44;;;;;;;21.88;10.63;;;3.70;99.90;;;3.10;100.00;99752.94;5023313;28;20041;-82
2023/11/13 07:41:13;;;;;;;20.13;10.27;;;3.70;99.90;;;3.13;100.00;99757.94;5013082;28;20185;-82
2023/11/13 07:43:43;;;;;;;26.27;10.75;;;3.80;99.90;;;3.23;100.00;99754.94;5015766;28;20049;-82
2023/11/13 07:46:11;;;;;;;21.05;10.75;;;3.90;99.90;;;3.32;100.00;99753.81;5021895;28;20040;-83
2023/11/13 07:48:40;;;;;;;24.50;11.18;;;4.00;99.90;;;3.42;100.00;99759.72;5018510;28;20059;-82
2023/11/13 07:51:07;;;;;;;19.25;10.45;;;4.00;99.90;;;3.54;100.00;99770.00;5012318;28;20560;-83
2023/11/13 07:53:35;;;;;;;17.05;10.07;;;4.20;99.90;;;3.59;100.00;99773.78;5012240;28;20034;-84
2023/11/13 07:56:03;;;;;;;19.08;10.18;;;4.30;99.90;;;3.71;100.00;99781.38;5037648;28;20045;-84
2023/11/13 07:58:29;;;;;;;25.92;10.73;;;4.30;99.90;;;3.76;100.00;99787.03;5016538;28;20041;-84
2023/11/13 08:00:55;;;;;;;19.73;10.20;;;4.40;99.90;;;3.70;100.00;99793.19;5031369;28;20049;-85
2023/11/13 08:03:23;;;;;;;25.90;11.40;;;4.40;99.90;;;3.71;100.00;99793.00;5024822;28;20120;-80
2023/11/13 08:05:49;;;;;;;23.02;10.05;;;4.50;99.90;;;3.77;100.00;99794.09;5013176;28;20117;-82
2023/11/13 08:08:16;;;;;;;23.23;11.68;;;4.50;99.90;;;3.82;100.00;99780.00;5019768;28;20092;-85
2023/11/13 08:10:46;;;;;;;23.00;12.05;;;4.60;99.90;;;3.95;100.00;99782.84;5034466;28;20124;-83
2023/11/13 08:13:14;;;;;;;27.45;12.52;;;4.70;99.90;;;4.00;100.00;99771.47;5021064;28;20036;-90
2023/11/13 08:15:42;;;;;;;27.05;13.40;;;4.80;99.90;;;4.11;100.00;99767.38;5013626;28;20038;-86
2023/11/13 08:18:15;;;;;;;23.55;13.60;;;4.80;99.90;;;4.12;100.00;99753.69;5016738;28;20044;-85
2023/11/13 08:20:43;;;;;;;22.38;13.50;;;4.90;99.90;;;4.22;100.00;99744.41;5028725;28;20038;-86
2023/11/13 08:23:13;;;;;;;22.38;13.25;;;5.00;99.90;;;4.27;100.00;99725.78;5027792;28;20026;-88
2023/11/13 08:25:43;;;;;;;23.00;13.75;;;5.10;99.90;;;4.39;100.00;99736.84;5016296;28;20053;-86
2023/11/13 08:28:09;;;;;;;25.90;13.93;;;5.20;99.90;;;4.35;100.00;99724.75;5031856;28;20155;-85
2023/11/13 08:30:36;;;;;;;24.30;12.93;;;5.20;99.90;;;4.43;100.00;99741.63;5025082;28;20034;-89
2023/11/13 08:33:03;;;;;;;22.87;13.77;;;5.30;99.90;;;4.59;100.00;99756.69;5019299;28;20092;-86
2023/11/13 08:35:32;;;;;;;23.83;11.85;;;5.40;99.90;;;4.68;100.00;99749.25;5012320;28;20038;-86
2023/11/13 08:37:59;;;;;;;25.50;11.90;;;5.50;99.90;;;4.74;100.00;99745.75;5022870;28;20120;-87
2023/11/13 08:40:26;;;;;;;21.50;11.70;;;5.60;99.90;;;4.77;100.00;99743.69;5038267;28;20053;-86
2023/11/13 08:42:53;;;;;;;21.17;11.60;;;5.70;99.90;;;4.77;100.00;99744.53;5039208;28;20041;-81
2023/11/13 08:45:19;;;;;;;21.88;11.05;;;5.70;99.90;;;4.96;100.00;99755.63;5015543;28;20096;-86
2023/11/13 08:47:53;;;;;;;21.60;11.30;;;5.80;99.90;;;4.93;100.00;99756.03;5019886;28;20042;-85
2023/11/13 08:50:21;;;;;;;22.08;12.13;;;5.90;99.90;;;5.07;100.00;99765.03;5024583;28;20038;-85
2023/11/13 08:52:50;;;;;;;20.52;11.68;;;5.90;99.90;;;5.23;100.00;99767.38;5026178;28;20100;-84
2023/11/13 08:55:17;;;;;;;18.73;9.90;;;6.00;99.90;;;5.33;100.00;99773.25;5026815;28;20118;-84
2023/11/13 08:57:45;;;;;;;21.85;10.68;;;6.20;99.90;;;5.52;100.00;99776.19;5026645;28;20347;-86
2023/11/13 09:00:28;;;;;;;18.02;10.15;;;6.30;99.90;;;5.68;100.00;99779.56;5030604;28;20041;-83
2023/11/13 09:02:56;;;;;;;20.50;10.50;;;6.40;99.90;;;5.90;100.00;99783.75;5027205;28;20068;-84
2023/11/13 09:05:25;;;;;;;16.08;9.70;;;6.60;99.90;;;5.92;100.00;99783.53;5018299;28;20177;-82
2023/11/13 09:07:55;;;;;;;15.15;9.88;;;6.70;99.90;;;6.02;100.00;99767.75;5015946;28;20208;-83
2023/11/13 09:10:26;;;;;;;16.23;8.60;;;6.80;99.90;;;5.81;100.00;99774.13;5014863;28;20069;-82
2023/11/13 09:12:59;;;;;;;15.80;9.30;;;6.80;99.90;;;5.91;100.00;99768.31;5021261;28;20037;-82
2023/11/13 09:15:30;;;;;;;16.85;9.02;;;6.80;99.90;;;5.98;100.00;99758.34;5019874;28;20053;-82
2023/11/13 09:18:01;;;;;;;13.80;8.15;;;6.90;99.90;;;5.98;100.00;99750.22;5036816;28;20121;-79
2023/11/13 09:20:29;;;;;;;14.13;8.77;;;6.90;99.90;;;6.05;100.00;99750.22;5020601;28;20099;-80
2023/11/13 09:22:55;;;;;;;14.75;8.57;;;7.00;99.90;;;6.21;100.00;99751.66;5016837;28;20151;-82
2023/11/13 09:25:21;;;;;;;12.93;7.38;;;7.10;99.90;;;6.26;100.00;99751.91;5020373;28;20036;-82
2023/11/13 09:27:50;;;;;;;12.50;7.68;;;7.20;99.90;;;6.59;100.00;99748.28;5016288;28;20042;-80
2023/11/13 09:30:19;;;;;;;13.23;8.52;;;7.40;99.90;;;6.61;100.00;99751.59;5026307;28;20044;-82
2023/11/13 09:32:46;;;;;;;13.07;8.25;;;7.70;99.90;;;6.65;100.00;99748.47;5025155;28;20041;-84
2023/11/13 09:35:21;;;;;;;11.68;7.60;;;7.70;99.90;;;6.58;100.00;99745.78;5033393;28;20056;-83
2023/11/13 09:37:50;;;;;;;12.38;7.95;;;7.60;99.90;;;6.56;100.00;99756.00;5013890;28;20176;-84
2023/11/13 09:40:22;;;;;;;11.57;7.80;;;7.60;99.90;;;6.98;100.00;99756.50;5016937;28;20050;-85
2023/11/13 09:42:52;;;;;;;15.68;7.10;;;7.70;99.90;;;7.37;100.00;99767.38;5013610;28;20125;-82
2023/11/13 09:45:20;;;;;;;11.25;7.25;;;8.30;99.90;;;7.28;100.00;99769.50;5024493;28;20038;-83
2023/11/13 09:47:47;;;;;;;12.07;7.18;;;8.40;99.90;;;7.49;100.00;99767.50;5018524;28;20054;-83
2023/11/13 09:50:17;;;;;;;11.70;7.07;;;8.40;99.90;;;7.73;100.00;99760.47;5027239;28;20041;-80
2023/11/13 09:52:48;;;;;;;11.15;6.75;;;8.60;99.90;;;8.00;100.00;99764.88;5029904;28;20034;-84
2023/11/13 09:55:20;;;;;;;11.57;7.10;;;8.90;99.90;;;7.73;100.00;99771.31;5014574;28;20049;-84
2023/11/13 09:57:53;;;;;;;10.85;6.72;;;8.80;99.90;;;7.44;100.00;99775.47;5020116;28;20048;-84
2023/11/13 10:00:30;;;;;;;10.95;6.53;;;8.50;99.90;;;7.08;100.00;99771.47;5013979;28;20038;-84
2023/11/13 10:02:56;;;;;;;9.77;6.25;;;8.20;99.90;;;6.97;100.00;99764.84;5024999;28;20478;-81
2023/11/13 10:05:29;;;;;;;10.23;6.68;;;8.00;99.90;;;6.87;100.00;99752.56;5035219;28;20037;-83
2023/11/13 10:07:55;;;;;;;10.32;6.72;;;7.90;99.90;;;6.88;100.00;99762.38;5027283;28;20113;-83
2023/11/13 10:10:29;;;;;;;11.25;6.45;;;7.80;99.90;;;6.84;100.00;99754.88;5019007;28;20045;-83
2023/11/13 10:13:04;;;;;;;10.45;6.53;;;7.70;99.90;;;6.48;100.00;99748.91;5029012;28;20034;-86
2023/11/13 10:15:32;;;;;;;10.10;6.50;;;7.50;99.90;;;6.29;100.00;99734.38;5035993;28;20044;-82
2023/11/13 10:18:01;;;;;;;10.18;6.22;;;7.30;99.90;;;6.15;100.00;99725.44;5017360;28;20056;-84
2023/11/13 10:20:28;;;;;;;11.98;7.13;;;7.20;99.90;;;6.04;100.00;99707.94;5038982;28;20092;-82